Time;durP1;ratioP1;P1;durP2;ratioP2;P2;SDS_P1;SDS_P2;PMS_P1;PMS_P2;Temp;Humidity;BMP_temperature;BMP_pressure;BME280_temperature;BME280_humidity;BME280_pressure;Samples;Min_cycle;Max_cycle;Signal;HPM_P1;HPM_P2
2023/08/13 07:16:00;;;;;;;;;;;;;;;;;;5827448;23;19922;-83
2023/08/13 07:18:26;;;;;;;;;;;;;;;;;;4958951;29;20017;-82
2023/08/13 09:53:30;;;;;;;;;;;;;;;;;;5165100;23;19921;-87
2023/08/13 09:55:58;;;;;;;;;;;;;;;;;;4994443;28;20008;-86
2023/08/13 09:58:24;;;;;;;;;;;;;;;;;;4994841;28;19920;-85
2023/08/13 10:00:50;;;;;;;;;;;;;;;;;;4995037;28;19917;-84
2023/08/13 10:03:18;;;;;;;;;;;;;;;;;;4994811;28;20416;-89
2023/08/13 10:05:44;;;;;;;;;;;;;;;;;;4995245;28;19917;-81
2023/08/13 10:08:10;;;;;;;;;;;;;;;;;;4995288;28;20260;-82
2023/08/13 10:10:36;;;;;;;;;;;;;;;;;;4994728;28;19972;-82
2023/08/13 10:13:02;;;;;;;;;;;;;;;;;;4994554;28;19937;-83
2023/08/13 10:15:28;;;;;;;;;;;;;;;;;;4994909;28;20348;-83
2023/08/13 10:17:53;;;;;;;;;;;;;;;;;;4994576;28;19921;-83
2023/08/13 10:20:19;;;;;;;;;;;;;;;;;;4994378;28;19918;-83
2023/08/13 10:22:44;;;;;;;;;;;;;;;;;;4994668;28;19921;-83
2023/08/13 10:25:24;;;;;;;;;;;;;;;;;;4994789;28;19914;-83
2023/08/13 10:27:52;;;;;;;;;;;;;;;;;;4998328;28;19995;-84
2023/08/13 10:30:17;;;;;;;;;;;;;;;;;;4998361;28;19918;-85
2023/08/13 10:32:49;;;;;;;;;;;;;;;;;;4998479;28;19914;-85
2023/08/13 10:35:20;;;;;;;;;;;;;;;;;;4998876;28;19910;-85
2023/08/13 10:37:49;;;;;;;;;;;;;;;;;;4998561;28;19914;-86
2023/08/13 10:40:16;;;;;;;;;;;;;;;;;;4998360;28;20005;-87
2023/08/13 10:42:45;;;;;;;;;;;;;;;;;;4981045;28;19914;-85
2023/08/13 10:45:12;;;;;;;;;;;;;;;;;;4998251;28;19916;-84
2023/08/13 10:47:38;;;;;;;;;;;;;;;;;;4998267;28;20323;-84
2023/08/13 10:50:07;;;;;;;;;;;;;;;;;;4998055;28;19918;-84
2023/08/13 10:52:32;;;;;;;;;;;;;;;;;;4998493;28;19913;-85
2023/08/13 10:54:58;;;;;;;;;;;;;;;;;;4998092;28;19965;-82
2023/08/13 10:57:28;;;;;;;;;;;;;;;;;;4997986;28;19968;-85
2023/08/13 10:59:54;;;;;;;;;;;;;;;;;;4998273;28;19937;-83
2023/08/13 11:02:19;;;;;;;;;;;;;;;;;;4998045;28;19913;-83
2023/08/13 11:04:45;;;;;;;;;;;;;;;;;;4997982;28;20060;-83
2023/08/13 11:07:11;;;;;;;;;;;;;;;;;;4997856;28;19914;-83
2023/08/13 11:09:37;;;;;;;;;;;;;;;;;;4997945;28;19925;-84
2023/08/13 11:12:05;;;;;;;;;;;;;;;;;;4997673;28;20459;-84
2023/08/13 11:14:32;;;;;;;;;;;;;;;;;;4997649;28;19921;-83
2023/08/13 11:16:57;;;;;;;;;;;;;;;;;;4997710;28;20382;-84
2023/08/13 11:19:22;;;;;;;;;;;;;;;;;;4997778;28;19914;-83
2023/08/13 11:21:48;;;;;;;;;;;;;;;;;;4997568;28;19917;-84
2023/08/13 11:24:14;;;;;;;;;;;;;;;;;;4980117;28;19957;-83
2023/08/13 11:26:39;;;;;;;;;;;;;;;;;;4997769;28;19972;-84
2023/08/13 11:29:05;;;;;;;;;;;;;;;;;;4998580;28;20009;-84
2023/08/13 11:31:33;;;;;;;;;;;;;;;;;;4997293;28;20431;-84
2023/08/13 11:33:59;;;;;;;;;;;;;;;;;;4997439;28;19956;-83
2023/08/13 11:36:25;;;;;;;;;;;;;;;;;;4997614;28;19961;-86
2023/08/13 11:38:50;;;;;;;;;;;;;;;;;;4996738;28;19964;-83
2023/08/13 11:41:15;;;;;;;;;;;;;;;;;;4997102;28;19917;-84
2023/08/13 11:43:41;;;;;;;;;;;;;;;;;;4997200;28;20284;-84
2023/08/13 11:46:06;;;;;;;;;;;;;;;;;;4997451;28;19917;-85
2023/08/13 11:48:33;;;;;;;;;;;;;;;;;;4997422;28;19914;-84
2023/08/13 11:51:15;;;;;;;;;;;;;;;;;;4997025;28;20024;-85
2023/08/13 11:53:44;;;;;;;;;;;;;;;;;;4996834;28;19920;-85
2023/08/13 11:56:13;;;;;;;;;;;;;;;;;;4996933;28;19918;-85
2023/08/13 11:58:39;;;;;;;;;;;;;;;;;;4997215;28;19995;-83
2023/08/13 12:01:04;;;;;;;;;;;;;;;;;;4996970;28;19921;-86
2023/08/13 12:03:40;;;;;;;;;;;;;;;;;;4997131;28;19945;-84
2023/08/13 12:06:06;;;;;;;;;;;;;;;;;;4996996;28;19921;-84
2023/08/13 12:08:32;;;;;;;;;;;;;;;;;;4996605;28;19914;-83
2023/08/13 12:10:57;;;;;;;;;;;;;;;;;;4996647;28;19914;-84
2023/08/13 12:13:26;;;;;;;;;;;;;;;;;;4996984;28;20012;-84
2023/08/13 12:15:51;;;;;;;;;;;;;;;;;;4996969;28;19914;-83
2023/08/13 12:18:17;;;;;;;;;;;;;;;;;;4996540;28;20335;-84
2023/08/13 12:20:43;;;;;;;;;;;;;;;;;;4996561;28;19910;-84
2023/08/13 12:23:08;;;;;;;;;;;;;;;;;;4996705;28;19936;-83
2023/08/13 12:25:33;;;;;;;;;;;;;;;;;;4996755;28;19913;-84
2023/08/13 12:27:59;;;;;;;;;;;;;;;;;;4979122;28;19909;-84
2023/08/13 12:30:24;;;;;;;;;;;;;;;;;;4996406;28;19914;-84
2023/08/13 12:32:49;;;;;;;;;;;;;;;;;;4996404;28;20272;-84
2023/08/13 12:35:15;;;;;;;;;;;;;;;;;;4996235;28;19910;-84
2023/08/13 12:37:40;;;;;;;;;;;;;;;;;;4995933;28;19914;-84
2023/08/13 12:40:09;;;;;;;;;;;;;;;;;;4996689;28;20059;-85
2023/08/13 12:42:34;;;;;;;;;;;;;;;;;;4996201;28;19921;-84
2023/08/13 12:45:00;;;;;;;;;;;;;;;;;;4996200;28;19913;-85
2023/08/13 12:47:25;;;;;;;;;;;;;;;;;;4996360;28;19909;-85
2023/08/13 12:49:50;;;;;;;;;;;;;;;;;;4995007;28;19914;-84
2023/08/13 12:52:16;;;;;;;;;;;;;;;;;;4996224;28;20372;-84
2023/08/13 12:54:41;;;;;;;;;;;;;;;;;;4995686;28;19925;-84
2023/08/13 12:57:06;;;;;;;;;;;;;;;;;;4996270;28;20369;-84
2023/08/13 12:59:32;;;;;;;;;;;;;;;;;;4995949;28;19910;-84
2023/08/13 13:01:57;;;;;;;;;;;;;;;;;;4995723;28;19937;-84
2023/08/13 13:04:23;;;;;;;;;;;;;;;;;;4995675;28;19944;-84
2023/08/13 13:06:49;;;;;;;;;;;;;;;;;;4995832;28;20331;-85
2023/08/13 13:09:15;;;;;;;;;;;;;;;;;;4996107;28;19967;-85
2023/08/13 13:11:40;;;;;;;;;;;;;;;;;;4995375;28;19913;-85
2023/08/13 13:14:05;;;;;;;;;;;;;;;;;;4995786;28;19913;-85
2023/08/13 13:16:30;;;;;;;;;;;;;;;;;;4995555;28;19914;-85
2023/08/13 13:18:56;;;;;;;;;;;;;;;;;;4995716;28;19917;-85
2023/08/13 13:21:21;;;;;;;;;;;;;;;;;;4995303;28;19913;-85
2023/08/13 13:23:46;;;;;;;;;;;;;;;;;;4995475;28;20016;-83
2023/08/13 13:26:12;;;;;;;;;;;;;;;;;;4995695;28;19914;-85
2023/08/13 13:28:40;;;;;;;;;;;;;;;;;;4977868;28;20012;-85
2023/08/13 13:31:06;;;;;;;;;;;;;;;;;;4978131;28;19913;-87
2023/08/13 13:33:31;;;;;;;;;;;;;;;;;;4995418;28;20427;-84
2023/08/13 13:35:56;;;;;;;;;;;;;;;;;;4995409;28;19918;-85
2023/08/13 13:38:22;;;;;;;;;;;;;;;;;;4995297;28;20012;-85
2023/08/13 13:40:47;;;;;;;;;;;;;;;;;;4995072;28;19966;-85
2023/08/13 13:43:12;;;;;;;;;;;;;;;;;;4995388;28;20339;-84
2023/08/13 13:45:38;;;;;;;;;;;;;;;;;;4995116;28;19914;-84
2023/08/13 13:48:04;;;;;;;;;;;;;;;;;;4994960;28;20273;-85
2023/08/13 13:50:29;;;;;;;;;;;;;;;;;;4994785;28;19971;-84
2023/08/13 13:52:55;;;;;;;;;;;;;;;;;;4994816;28;19914;-85
2023/08/13 13:55:20;;;;;;;;;;;;;;;;;;4994668;28;19979;-86
2023/08/13 13:57:45;;;;;;;;;;;;;;;;;;4994955;28;19920;-85
2023/08/13 14:00:12;;;;;;;;;;;;;;;;;;4995006;28;19918;-86
2023/08/13 14:02:37;;;;;;;;;;;;;;;;;;4994654;28;19924;-84
2023/08/13 14:05:03;;;;;;;;;;;;;;;;;;4994963;28;19992;-84
2023/08/13 14:07:29;;;;;;;;;;;;;;;;;;4994590;28;20007;-84
2023/08/13 14:09:54;;;;;;;;;;;;;;;;;;4994578;28;19913;-84
2023/08/13 14:12:19;;;;;;;;;;;;;;;;;;4994847;28;19920;-85
2023/08/13 14:14:45;;;;;;;;;;;;;;;;;;4994879;28;19929;-85
2023/08/13 14:17:10;;;;;;;;;;;;;;;;;;4994534;28;19960;-88
2023/08/13 14:19:35;;;;;;;;;;;;;;;;;;4977230;28;19913;-85
2023/08/13 14:22:01;;;;;;;;;;;;;;;;;;4994689;28;20411;-85
2023/08/13 14:24:26;;;;;;;;;;;;;;;;;;4977229;28;20303;-85
2023/08/13 14:26:51;;;;;;;;;;;;;;;;;;4994567;28;19937;-85
2023/08/13 14:29:18;;;;;;;;;;;;;;;;;;4994772;28;19917;-85
2023/08/13 14:31:43;;;;;;;;;;;;;;;;;;4977173;28;19921;-84
2023/08/13 14:34:08;;;;;;;;;;;;;;;;;;4994423;28;19913;-85
2023/08/13 14:36:34;;;;;;;;;;;;;;;;;;4994452;28;19913;-90
2023/08/13 14:39:02;;;;;;;;;;;;;;;;;;4977587;28;19917;-90
2023/08/13 14:41:28;;;;;;;;;;;;;;;;;;4994300;28;19913;-89
2023/08/13 14:43:53;;;;;;;;;;;;;;;;;;4994294;28;20269;-89
2023/08/13 14:46:20;;;;;;;;;;;;;;;;;;4994449;28;19914;-89
2023/08/13 14:48:46;;;;;;;;;;;;;;;;;;4994487;28;20372;-90
2023/08/13 14:51:11;;;;;;;;;;;;;;;;;;4994129;28;19961;-88
2023/08/13 14:53:37;;;;;;;;;;;;;;;;;;4977355;28;20275;-94
2023/08/13 14:56:02;;;;;;;;;;;;;;;;;;4977109;28;19913;-90
2023/08/13 14:58:28;;;;;;;;;;;;;;;;;;4994179;28;19920;-90
2023/08/13 15:00:53;;;;;;;;;;;;;;;;;;4994764;28;20293;-88
2023/08/13 15:03:18;;;;;;;;;;;;;;;;;;4997274;28;19913;-90
2023/08/13 15:05:44;;;;;;;;;;;;;;;;;;4979452;28;19968;-92
2023/08/13 15:08:09;;;;;;;;;;;;;;;;;;4981930;28;19914;-91
2023/08/13 15:10:34;;;;;;;;;;;;;;;;;;4997578;28;19913;-90
2023/08/13 15:13:00;;;;;;;;;;;;;;;;;;5010850;28;19981;-95
2023/08/13 15:15:25;;;;;;;;;;;;;;;;;;4988400;28;19913;-96
2023/08/13 15:17:50;;;;;;;;;;;;;;;;;;5001536;28;19914;-96
2023/08/13 15:20:16;;;;;;;;;;;;;;;;;;5003671;28;19921;-94
2023/08/13 15:22:41;;;;;;;;;;;;;;;;;;4988502;28;19964;-96
2023/08/13 15:25:06;;;;;;;;;;;;;;;;;;4983674;28;19917;-95
2023/08/13 15:27:32;;;;;;;;;;;;;;;;;;4998509;28;19936;-94
2023/08/13 15:29:57;;;;;;;;;;;;;;;;;;4998503;28;19921;-94
2023/08/13 15:32:23;;;;;;;;;;;;;;;;;;4982161;28;19914;-95
2023/08/13 15:34:48;;;;;;;;;;;;;;;;;;4999040;28;19968;-96
2023/08/13 15:37:14;;;;;;;;;;;;;;;;;;4998958;28;19918;-94
2023/08/13 15:39:42;;;;;;;;;;;;;;;;;;4980858;28;19914;-94
2023/08/13 15:42:07;;;;;;;;;;;;;;;;;;4998602;28;19917;-94
2023/08/13 20:08:26;;;;;;;;;;;;;;;;;;5232524;23;20009;-88
2023/08/13 20:10:54;;;;;;;;;;;;;;;;;;4958112;29;19929;-87
2023/08/13 20:13:20;;;;;;;;;;;;;;;;;;4940912;29;19914;-87
